Time;durP1;ratioP1;P1;durP2;ratioP2;P2;SDS_P1;SDS_P2;PMS_P1;PMS_P2;Temp;Humidity;BMP_temperature;BMP_pressure;BME280_temperature;BME280_humidity;BME280_pressure;Samples;Min_cycle;Max_cycle;Signal;HPM_P1;HPM_P2
2022/07/28 00:00:21;;;;;;;0.30;0.30;;;15.50;95.40;;;;;;5025612;28;20436;-57
2022/07/28 00:02:48;;;;;;;0.38;0.38;;;15.50;95.50;;;;;;5028252;28;20466;-57
2022/07/28 00:05:18;;;;;;;0.25;0.25;;;15.40;95.50;;;;;;5033070;28;20889;-58
2022/07/28 00:07:45;;;;;;;0.20;0.20;;;15.30;95.60;;;;;;5026721;28;20425;-57
2022/07/28 00:10:12;;;;;;;0.20;0.20;;;15.20;95.70;;;;;;5029697;28;20427;-58
2022/07/28 00:12:41;;;;;;;0.20;0.20;;;15.20;95.80;;;;;;5026499;28;20526;-57
2022/07/28 00:15:10;;;;;;;0.30;0.30;;;15.20;95.80;;;;;;5008256;28;20645;-57
2022/07/28 00:17:37;;;;;;;0.30;0.30;;;15.20;95.90;;;;;;5026118;28;20431;-57
2022/07/28 00:20:05;;;;;;;0.40;0.20;;;15.10;95.80;;;;;;5014763;28;20441;-57
2022/07/28 00:22:32;;;;;;;0.30;0.30;;;15.20;95.80;;;;;;5018884;28;20439;-57
2022/07/28 00:24:59;;;;;;;0.20;0.20;;;15.20;95.80;;;;;;5017253;28;20777;-57
2022/07/28 00:27:25;;;;;;;0.30;0.30;;;15.20;95.80;;;;;;5022402;28;20433;-57
2022/07/28 00:29:52;;;;;;;0.20;0.20;;;15.20;95.90;;;;;;5027856;28;20499;-57
2022/07/28 00:32:19;;;;;;;0.22;0.22;;;15.10;95.90;;;;;;5023019;28;20469;-57
2022/07/28 00:34:46;;;;;;;0.50;0.20;;;15.10;95.90;;;;;;5023940;28;20997;-57
2022/07/28 00:37:13;;;;;;;0.25;0.25;;;15.00;96.10;;;;;;5028716;28;20437;-57
2022/07/28 00:39:43;;;;;;;0.20;0.20;;;15.10;96.00;;;;;;5022590;28;20435;-57
2022/07/28 00:42:15;;;;;;;0.50;0.30;;;15.10;95.90;;;;;;5023076;28;20439;-57
2022/07/28 00:44:42;;;;;;;0.20;0.20;;;15.10;95.90;;;;;;5024434;28;20474;-57
2022/07/28 00:47:10;;;;;;;0.20;0.20;;;15.10;95.90;;;;;;5027618;28;20423;-57
2022/07/28 00:49:38;;;;;;;0.20;0.20;;;15.10;96.00;;;;;;5026231;28;20463;-58
2022/07/28 00:52:08;;;;;;;0.20;0.20;;;15.10;96.00;;;;;;5029608;28;20428;-58
2022/07/28 00:54:36;;;;;;;0.40;0.40;;;15.10;96.00;;;;;;5032590;28;20479;-58
2022/07/28 00:57:02;;;;;;;0.30;0.30;;;15.10;96.00;;;;;;5030029;28;20577;-58
2022/07/28 00:59:30;;;;;;;0.55;0.20;;;15.10;96.00;;;;;;5028164;28;20603;-57
2022/07/28 01:02:00;;;;;;;0.52;0.30;;;15.00;96.10;;;;;;5026366;28;20433;-57
2022/07/28 01:04:28;;;;;;;0.30;0.30;;;15.00;96.10;;;;;;5025595;28;20478;-57
2022/07/28 01:07:14;;;;;;;0.30;0.30;;;15.00;96.10;;;;;;5024949;28;20427;-58
2022/07/28 01:09:49;;;;;;;0.25;0.25;;;14.90;96.20;;;;;;5027830;28;20439;-58
2022/07/28 01:12:29;;;;;;;3.40;0.30;;;14.80;96.30;;;;;;5025263;28;20480;-58
2022/07/28 01:15:21;;;;;;;0.30;0.30;;;14.80;96.40;;;;;;5024354;28;20455;-57
2022/07/28 01:18:05;;;;;;;0.50;0.40;;;14.70;96.40;;;;;;5023699;28;20935;-57
2022/07/28 01:21:07;;;;;;;0.25;0.25;;;14.70;96.40;;;;;;5044053;28;20434;-59
2022/07/28 01:23:56;;;;;;;0.25;0.25;;;14.70;96.50;;;;;;5026366;28;20441;-59
2022/07/28 01:26:41;;;;;;;0.30;0.30;;;14.80;96.50;;;;;;5027566;28;20427;-59
2022/07/28 01:29:49;;;;;;;0.30;0.30;;;14.80;96.50;;;;;;5015887;28;20479;-59
2022/07/28 01:32:20;;;;;;;0.20;0.20;;;14.80;96.40;;;;;;5025354;28;20431;-59
2022/07/28 01:34:59;;;;;;;0.20;0.20;;;14.80;96.50;;;;;;5035256;28;20426;-59
2022/07/28 01:37:31;;;;;;;0.30;0.30;;;14.80;96.40;;;;;;5039089;28;20469;-59
2022/07/28 01:40:05;;;;;;;0.20;0.20;;;14.90;96.50;;;;;;5020939;28;20425;-57
2022/07/28 01:42:38;;;;;;;0.20;0.20;;;14.80;96.70;;;;;;5026762;28;20648;-58
2022/07/28 01:45:07;;;;;;;0.40;0.40;;;14.80;96.60;;;;;;5028982;28;20434;-57
2022/07/28 01:47:34;;;;;;;0.30;0.30;;;14.80;96.50;;;;;;5031654;28;20515;-57
2022/07/28 01:50:07;;;;;;;0.30;0.30;;;14.80;96.50;;;;;;5022388;28;20994;-57
2022/07/28 01:52:35;;;;;;;0.40;0.40;;;14.90;96.50;;;;;;5032887;28;20506;-57
2022/07/28 01:55:02;;;;;;;0.80;0.30;;;14.90;96.60;;;;;;5034828;28;20435;-57
2022/07/28 01:57:32;;;;;;;0.40;0.30;;;14.80;96.50;;;;;;5038647;28;20470;-57
2022/07/28 02:00:00;;;;;;;0.20;0.20;;;14.80;96.60;;;;;;5032799;28;20426;-57
2022/07/28 02:02:32;;;;;;;1.60;0.40;;;14.70;96.70;;;;;;5031052;28;20514;-58
2022/07/28 02:05:01;;;;;;;0.28;0.28;;;14.70;96.80;;;;;;5036062;28;20433;-57
2022/07/28 02:07:29;;;;;;;0.20;0.20;;;14.70;96.90;;;;;;5032189;28;20434;-57
2022/07/28 02:09:59;;;;;;;0.20;0.20;;;14.70;96.90;;;;;;5031221;28;20437;-57
2022/07/28 02:12:29;;;;;;;0.20;0.20;;;14.70;96.90;;;;;;5019953;28;20460;-57
2022/07/28 02:14:58;;;;;;;0.28;0.28;;;14.70;96.80;;;;;;5036640;28;20890;-57
2022/07/28 02:17:29;;;;;;;0.20;0.20;;;14.70;96.80;;;;;;5023047;28;20502;-58
2022/07/28 02:20:00;;;;;;;0.15;0.15;;;14.70;96.90;;;;;;5028588;28;20517;-57
2022/07/28 02:22:27;;;;;;;0.20;0.20;;;14.70;97.00;;;;;;5030219;28;20525;-57
2022/07/28 02:24:54;;;;;;;0.20;0.20;;;14.70;96.90;;;;;;5031212;28;20965;-58
2022/07/28 02:27:38;;;;;;;0.30;0.30;;;14.70;97.00;;;;;;5034412;28;20429;-57
2022/07/28 02:30:40;;;;;;;0.50;0.40;;;14.70;97.00;;;;;;5019993;28;20427;-57
2022/07/28 02:33:20;;;;;;;0.30;0.30;;;14.70;97.10;;;;;;5028855;28;20517;-58
2022/07/28 02:36:14;;;;;;;0.20;0.20;;;14.70;97.00;;;;;;5033686;28;20427;-58
2022/07/28 02:38:45;;;;;;;0.20;0.20;;;14.70;97.00;;;;;;5031296;28;20443;-57
2022/07/28 02:41:24;;;;;;;0.25;0.25;;;14.70;97.20;;;;;;5031542;28;20426;-57
2022/07/28 02:43:55;;;;;;;0.25;0.25;;;14.70;97.10;;;;;;5036216;28;20850;-57
2022/07/28 02:46:31;;;;;;;0.20;0.20;;;14.70;97.00;;;;;;5039411;28;20477;-57
2022/07/28 02:49:05;;;;;;;0.20;0.20;;;14.70;97.10;;;;;;5047378;28;20475;-57
2022/07/28 02:51:33;;;;;;;0.13;0.13;;;14.70;97.20;;;;;;5027116;28;20473;-57
2022/07/28 02:54:02;;;;;;;0.40;0.40;;;14.60;97.20;;;;;;5026205;28;20990;-57
2022/07/28 02:56:29;;;;;;;0.20;0.20;;;14.60;97.20;;;;;;5027238;28;20972;-58
2022/07/28 02:58:57;;;;;;;0.20;0.20;;;14.60;97.20;;;;;;5030053;28;20523;-58
2022/07/28 03:01:24;;;;;;;0.10;0.10;;;14.60;97.40;;;;;;5026783;28;20439;-58
2022/07/28 03:03:52;;;;;;;0.28;0.20;;;14.60;97.30;;;;;;5029629;28;20446;-57
2022/07/28 03:06:22;;;;;;;0.30;0.30;;;14.50;97.40;;;;;;5028682;28;21093;-57
2022/07/28 03:08:54;;;;;;;0.20;0.20;;;14.40;97.40;;;;;;5036655;28;20466;-57
2022/07/28 03:11:21;;;;;;;0.30;0.30;;;14.40;97.60;;;;;;5026647;28;20431;-57
2022/07/28 03:13:48;;;;;;;0.20;0.20;;;14.40;97.60;;;;;;5041416;28;20521;-57
2022/07/28 03:16:15;;;;;;;0.47;0.40;;;14.30;97.70;;;;;;5026102;28;20453;-58
2022/07/28 03:18:44;;;;;;;0.40;0.40;;;14.30;97.80;;;;;;5036443;28;20460;-57
2022/07/28 03:21:11;;;;;;;0.38;0.38;;;14.20;97.80;;;;;;5023986;28;20458;-58
2022/07/28 03:23:46;;;;;;;0.28;0.28;;;14.20;97.90;;;;;;5035933;28;20522;-58
2022/07/28 03:26:31;;;;;;;0.38;0.30;;;14.10;97.90;;;;;;5022626;28;20432;-58
2022/07/28 03:28:59;;;;;;;0.20;0.20;;;14.10;98.00;;;;;;5026946;28;21137;-58
2022/07/28 03:31:27;;;;;;;0.30;0.30;;;14.00;98.10;;;;;;5035323;28;20425;-58
2022/07/28 03:33:54;;;;;;;0.40;0.40;;;14.00;98.20;;;;;;5039100;28;20978;-58
2022/07/28 03:36:38;;;;;;;0.20;0.20;;;13.90;98.30;;;;;;5020633;28;20440;-58
2022/07/28 03:39:10;;;;;;;0.30;0.30;;;13.90;98.40;;;;;;5036782;28;20878;-59
2022/07/28 03:41:39;;;;;;;1.20;0.40;;;13.90;98.60;;;;;;5028565;28;20785;-58
2022/07/28 03:44:07;;;;;;;0.30;0.30;;;13.90;98.40;;;;;;5028941;28;20434;-58
2022/07/28 03:46:34;;;;;;;0.20;0.20;;;13.90;98.60;;;;;;5024468;28;20458;-58
2022/07/28 03:49:06;;;;;;;0.20;0.20;;;13.90;98.50;;;;;;5021519;28;20493;-58
2022/07/28 03:51:33;;;;;;;0.30;0.30;;;13.90;98.70;;;;;;5023472;28;20432;-58
2022/07/28 03:54:03;;;;;;;0.60;0.60;;;13.90;98.70;;;;;;5032166;28;20923;-58
2022/07/28 03:56:29;;;;;;;0.20;0.20;;;13.80;98.80;;;;;;5027859;28;20843;-58
2022/07/28 03:58:56;;;;;;;0.40;0.40;;;13.80;98.90;;;;;;5028212;28;20431;-58
2022/07/28 04:01:23;;;;;;;0.10;0.10;;;13.70;99.00;;;;;;5025043;28;20516;-58
2022/07/28 04:03:50;;;;;;;0.22;0.22;;;13.70;99.10;;;;;;5033061;28;20436;-58
2022/07/28 04:06:17;;;;;;;0.25;0.25;;;13.70;99.20;;;;;;5032593;28;20427;-58
2022/07/28 04:08:43;;;;;;;0.35;0.35;;;13.70;99.10;;;;;;5021392;28;20466;-58
2022/07/28 04:11:11;;;;;;;0.30;0.30;;;13.80;99.20;;;;;;5025360;28;20458;-58
2022/07/28 04:13:38;;;;;;;1.70;0.38;;;13.90;99.20;;;;;;5023141;28;20428;-58
2022/07/28 04:16:05;;;;;;;0.30;0.30;;;13.90;99.10;;;;;;5036461;28;20435;-58
2022/07/28 04:18:35;;;;;;;0.20;0.20;;;14.00;99.00;;;;;;5024766;28;20527;-58
2022/07/28 04:21:03;;;;;;;0.20;0.20;;;14.10;99.00;;;;;;5024713;28;20434;-58
2022/07/28 04:23:38;;;;;;;1.20;0.30;;;14.20;99.00;;;;;;5030806;28;20442;-58
2022/07/28 04:26:08;;;;;;;0.90;0.20;;;14.20;98.80;;;;;;5021438;28;20439;-58
2022/07/28 04:28:37;;;;;;;0.20;0.20;;;14.30;98.90;;;;;;5026220;28;20427;-58
2022/07/28 04:31:04;;;;;;;0.40;0.28;;;14.30;98.90;;;;;;5032469;28;20505;-58
2022/07/28 04:33:31;;;;;;;0.30;0.30;;;14.30;98.80;;;;;;5025762;28;20910;-58
2022/07/28 04:36:01;;;;;;;0.30;0.30;;;14.30;98.80;;;;;;5030723;28;20433;-58
2022/07/28 04:38:27;;;;;;;0.30;0.30;;;14.40;98.90;;;;;;5043119;28;20440;-56
2022/07/28 04:40:55;;;;;;;0.10;0.10;;;14.40;98.70;;;;;;5029127;28;20800;-56
2022/07/28 04:43:22;;;;;;;0.38;0.38;;;14.50;98.70;;;;;;5044263;28;20426;-57
2022/07/28 04:45:50;;;;;;;0.30;0.30;;;14.50;98.70;;;;;;5027956;28;20462;-56
2022/07/28 04:48:21;;;;;;;0.20;0.20;;;14.60;98.80;;;;;;5028235;28;20514;-56
2022/07/28 04:50:50;;;;;;;0.20;0.20;;;14.60;98.70;;;;;;5027367;28;20435;-56
2022/07/28 04:53:20;;;;;;;0.30;0.30;;;14.80;98.60;;;;;;5037259;28;20425;-56
2022/07/28 04:55:48;;;;;;;0.20;0.20;;;14.80;98.50;;;;;;5022813;28;20428;-57
2022/07/28 04:58:17;;;;;;;0.40;0.40;;;14.90;98.50;;;;;;5025995;28;20440;-56
2022/07/28 05:00:45;;;;;;;0.30;0.30;;;14.90;98.60;;;;;;5020145;28;20784;-56
2022/07/28 05:03:16;;;;;;;0.30;0.30;;;14.90;98.60;;;;;;5026977;28;20446;-57
2022/07/28 05:05:45;;;;;;;0.30;0.30;;;15.00;98.50;;;;;;5026238;28;20478;-57
2022/07/28 05:08:19;;;;;;;0.20;0.20;;;15.10;98.60;;;;;;5028179;28;20457;-56
2022/07/28 05:10:47;;;;;;;0.40;0.30;;;15.20;98.50;;;;;;5025152;28;20429;-56
2022/07/28 05:13:14;;;;;;;0.20;0.20;;;15.20;98.50;;;;;;5025754;28;20467;-56
2022/07/28 05:15:41;;;;;;;0.20;0.20;;;15.30;98.60;;;;;;5020425;28;20797;-57
2022/07/28 05:18:07;;;;;;;0.30;0.30;;;15.40;98.40;;;;;;5014337;28;20426;-57
2022/07/28 05:20:34;;;;;;;0.50;0.30;;;15.50;98.50;;;;;;5030263;28;20514;-56
2022/07/28 05:23:02;;;;;;;0.30;0.30;;;15.60;98.20;;;;;;5035082;28;20920;-56
2022/07/28 05:25:29;;;;;;;0.35;0.35;;;15.70;97.90;;;;;;5025844;28;20488;-56
2022/07/28 05:27:56;;;;;;;0.40;0.40;;;15.80;98.10;;;;;;5024832;28;20427;-56
2022/07/28 05:30:23;;;;;;;0.30;0.30;;;15.90;97.70;;;;;;5026055;28;20535;-56
2022/07/28 05:32:58;;;;;;;0.30;0.30;;;16.10;97.70;;;;;;5027260;28;20429;-56
2022/07/28 05:35:25;;;;;;;0.30;0.30;;;16.10;97.50;;;;;;5023100;28;20590;-57
2022/07/28 05:37:52;;;;;;;0.30;0.30;;;16.30;97.20;;;;;;5022515;28;20427;-58
2022/07/28 05:40:18;;;;;;;0.25;0.25;;;16.50;97.10;;;;;;5024420;28;20442;-58
2022/07/28 05:42:48;;;;;;;0.50;0.38;;;16.60;96.90;;;;;;5023637;28;20535;-57
2022/07/28 05:45:15;;;;;;;0.20;0.20;;;16.80;97.00;;;;;;5023201;28;21008;-58
2022/07/28 05:47:49;;;;;;;0.30;0.30;;;16.90;96.50;;;;;;5024155;28;20434;-58
2022/07/28 05:50:17;;;;;;;0.40;0.40;;;17.10;96.70;;;;;;5018521;28;20439;-57
2022/07/28 05:52:45;;;;;;;0.30;0.30;;;17.40;96.30;;;;;;5033331;28;20536;-58
2022/07/28 05:55:12;;;;;;;0.20;0.20;;;17.50;96.10;;;;;;5024685;28;20428;-57
2022/07/28 05:57:40;;;;;;;0.20;0.20;;;17.80;95.90;;;;;;5015062;28;21448;-59
2022/07/28 06:00:14;;;;;;;0.30;0.30;;;18.00;95.90;;;;;;5012204;28;20434;-58
2022/07/28 06:02:46;;;;;;;0.50;0.20;;;18.30;95.50;;;;;;5022529;28;20439;-58
2022/07/28 06:05:15;;;;;;;0.30;0.30;;;18.40;95.30;;;;;;5020288;28;20427;-58
2022/07/28 06:07:43;;;;;;;0.20;0.20;;;18.30;95.10;;;;;;5031598;28;20429;-58
2022/07/28 06:10:14;;;;;;;0.50;0.20;;;18.20;95.20;;;;;;5018241;28;20455;-58
2022/07/28 06:12:47;;;;;;;0.37;0.37;;;18.20;95.30;;;;;;5026065;28;20509;-57
2022/07/28 06:15:24;;;;;;;0.20;0.20;;;18.50;95.20;;;;;;5027681;28;20488;-58
2022/07/28 06:17:54;;;;;;;0.30;0.20;;;18.90;95.00;;;;;;5027756;28;20428;-58
2022/07/28 06:20:26;;;;;;;0.15;0.15;;;19.50;94.90;;;;;;5018107;28;20434;-58
2022/07/28 06:22:54;;;;;;;0.20;0.20;;;20.20;94.00;;;;;;5017177;28;20948;-58
2022/07/28 06:25:28;;;;;;;0.50;0.30;;;20.80;93.60;;;;;;5033487;28;20428;-58
2022/07/28 06:27:57;;;;;;;0.32;0.32;;;21.50;92.90;;;;;;5020435;28;20436;-58
2022/07/28 06:30:25;;;;;;;0.40;0.40;;;21.50;92.90;;;;;;5022773;28;20439;-58
2022/07/28 06:32:52;;;;;;;0.30;0.30;;;21.30;92.60;;;;;;5019610;28;20454;-58
2022/07/28 06:35:19;;;;;;;0.20;0.20;;;21.50;92.60;;;;;;5022700;28;20854;-58
2022/07/28 06:37:48;;;;;;;0.70;0.20;;;21.30;92.20;;;;;;5022454;28;20439;-58
2022/07/28 06:40:16;;;;;;;0.50;0.30;;;21.20;92.40;;;;;;5017599;28;20540;-58
2022/07/28 06:42:44;;;;;;;1.30;0.40;;;21.30;92.60;;;;;;5028135;28;20437;-58
2022/07/28 06:45:13;;;;;;;0.28;0.28;;;21.90;92.20;;;;;;5015792;28;20440;-58
2022/07/28 06:47:47;;;;;;;0.20;0.20;;;22.30;91.70;;;;;;5021238;28;20457;-58
2022/07/28 06:50:13;;;;;;;2.30;0.30;;;22.60;91.80;;;;;;5027934;28;20465;-58
2022/07/28 06:52:54;;;;;;;0.30;0.30;;;22.60;91.40;;;;;;5017596;28;20940;-58
2022/07/28 06:55:22;;;;;;;0.20;0.20;;;22.00;91.80;;;;;;5026736;28;20971;-59
2022/07/28 06:57:49;;;;;;;0.22;0.22;;;21.80;92.10;;;;;;5027727;28;20460;-58
2022/07/28 07:00:16;;;;;;;0.30;0.30;;;22.20;91.90;;;;;;5018074;28;20432;-58
2022/07/28 07:02:43;;;;;;;0.30;0.30;;;22.40;91.70;;;;;;5025288;28;20841;-58
2022/07/28 07:05:12;;;;;;;0.40;0.40;;;22.50;91.80;;;;;;5020479;28;20558;-58
2022/07/28 07:07:39;;;;;;;0.20;0.20;;;22.70;91.70;;;;;;5023438;28;20437;-58
2022/07/28 07:10:10;;;;;;;0.43;0.20;;;22.50;91.30;;;;;;5028055;28;20522;-58
2022/07/28 07:12:37;;;;;;;0.20;0.20;;;22.90;91.40;;;;;;5023576;28;20488;-58
2022/07/28 07:15:05;;;;;;;0.30;0.30;;;23.70;91.10;;;;;;5024819;28;20441;-58
2022/07/28 07:17:32;;;;;;;0.60;0.30;;;24.00;90.70;;;;;;5028528;28;20438;-58
2022/07/28 07:19:59;;;;;;;0.20;0.20;;;24.00;90.60;;;;;;5025571;28;20489;-59
2022/07/28 07:22:26;;;;;;;0.30;0.30;;;23.80;91.40;;;;;;5040306;28;20461;-58
2022/07/28 07:24:53;;;;;;;0.28;0.28;;;23.50;90.60;;;;;;5018403;28;20436;-59
2022/07/28 07:27:23;;;;;;;0.20;0.20;;;22.80;91.20;;;;;;5031633;28;20471;-58
2022/07/28 07:29:50;;;;;;;0.30;0.30;;;23.00;91.70;;;;;;5017778;28;20462;-59
2022/07/28 07:32:16;;;;;;;0.20;0.20;;;23.50;91.20;;;;;;5020887;28;20489;-58
2022/07/28 07:34:43;;;;;;;0.50;0.38;;;24.00;91.60;;;;;;5022901;28;20944;-58
2022/07/28 07:37:12;;;;;;;0.40;0.40;;;24.20;90.60;;;;;;5027952;28;20518;-58
2022/07/28 07:39:40;;;;;;;0.22;0.22;;;24.60;90.70;;;;;;5035271;28;20445;-58
2022/07/28 07:42:08;;;;;;;0.20;0.20;;;24.40;90.40;;;;;;5022918;28;20431;-58
2022/07/28 07:44:34;;;;;;;0.30;0.30;;;24.30;90.20;;;;;;5022227;28;20924;-58
2022/07/28 07:47:02;;;;;;;0.25;0.25;;;24.40;90.60;;;;;;5022734;28;20430;-59
2022/07/28 07:49:29;;;;;;;0.20;0.20;;;24.90;90.50;;;;;;5018711;28;20457;-59
2022/07/28 07:52:12;;;;;;;0.30;0.30;;;25.10;90.10;;;;;;5016792;28;20837;-58
2022/07/28 07:54:38;;;;;;;0.47;0.47;;;24.90;90.00;;;;;;5022337;28;20895;-58
2022/07/28 07:57:05;;;;;;;0.30;0.30;;;24.50;90.30;;;;;;5018250;28;20440;-59
2022/07/28 07:59:32;;;;;;;0.60;0.30;;;24.30;90.30;;;;;;5032580;28;20899;-60
2022/07/28 08:01:59;;;;;;;0.30;0.30;;;24.60;91.10;;;;;;5023197;28;20467;-58
2022/07/28 08:04:26;;;;;;;0.40;0.40;;;24.60;90.40;;;;;;5021156;28;20431;-59
2022/07/28 08:06:55;;;;;;;0.43;0.43;;;24.60;90.50;;;;;;5027588;28;20438;-59
2022/07/28 08:09:22;;;;;;;0.22;0.22;;;25.10;90.40;;;;;;5026762;28;20431;-58
2022/07/28 08:11:49;;;;;;;0.30;0.30;;;25.50;90.10;;;;;;5024540;28;20443;-58
2022/07/28 08:14:16;;;;;;;0.30;0.30;;;25.50;90.10;;;;;;5022091;28;20946;-58
2022/07/28 08:16:44;;;;;;;0.32;0.30;;;25.50;90.20;;;;;;5022966;28;20949;-59
2022/07/28 08:19:13;;;;;;;0.22;0.22;;;25.80;90.50;;;;;;5029653;28;20436;-59
2022/07/28 08:21:43;;;;;;;0.43;0.40;;;25.90;89.80;;;;;;5028043;28;20434;-59
2022/07/28 08:24:14;;;;;;;0.30;0.30;;;26.40;89.40;;;;;;5015216;28;20481;-57
2022/07/28 08:27:03;;;;;;;0.30;0.30;;;26.10;89.50;;;;;;5020465;28;20929;-57
2022/07/28 08:29:31;;;;;;;0.40;0.30;;;25.50;90.20;;;;;;5023868;28;20455;-58
2022/07/28 08:31:57;;;;;;;0.45;0.38;;;25.70;90.10;;;;;;5028173;28;20497;-58
2022/07/28 08:34:24;;;;;;;0.38;0.38;;;25.50;90.20;;;;;;5015031;28;20439;-57
2022/07/28 08:36:58;;;;;;;0.30;0.30;;;25.20;90.10;;;;;;5024745;28;20489;-58
2022/07/28 08:39:28;;;;;;;0.30;0.30;;;25.20;90.60;;;;;;5021620;28;20951;-57
2022/07/28 08:42:02;;;;;;;0.30;0.20;;;25.50;90.20;;;;;;5024986;28;20438;-57
2022/07/28 08:44:56;;;;;;;0.30;0.30;;;25.90;90.20;;;;;;5019178;28;20519;-57
2022/07/28 08:47:25;;;;;;;0.30;0.30;;;26.00;90.10;;;;;;5022981;28;20435;-57
2022/07/28 08:50:06;;;;;;;0.30;0.30;;;25.50;90.20;;;;;;5015423;28;20426;-57
2022/07/28 08:52:33;;;;;;;0.30;0.30;;;25.80;90.00;;;;;;5029536;28;20437;-58
2022/07/28 08:55:03;;;;;;;0.20;0.20;;;25.80;90.20;;;;;;5024640;28;20526;-57
2022/07/28 08:57:33;;;;;;;0.30;0.30;;;25.80;90.40;;;;;;5024917;28;20506;-57
2022/07/28 09:00:01;;;;;;;0.40;0.40;;;25.60;90.60;;;;;;5016362;28;20550;-57
2022/07/28 09:02:29;;;;;;;0.30;0.30;;;25.60;90.30;;;;;;5024723;28;20912;-58
2022/07/28 09:04:58;;;;;;;0.40;0.40;;;26.10;90.60;;;;;;5013937;28;20443;-56
2022/07/28 09:07:25;;;;;;;0.37;0.37;;;25.40;90.50;;;;;;5018311;28;20489;-58
2022/07/28 09:09:52;;;;;;;0.30;0.30;;;25.60;90.60;;;;;;5013570;28;20455;-58
2022/07/28 09:12:28;;;;;;;0.25;0.25;;;26.00;90.40;;;;;;5022317;28;20435;-58
2022/07/28 09:14:57;;;;;;;0.30;0.30;;;26.50;90.10;;;;;;5017381;28;20513;-58
2022/07/28 09:17:24;;;;;;;1.00;0.30;;;27.30;90.10;;;;;;5021349;28;20439;-58
2022/07/28 09:19:51;;;;;;;0.90;0.50;;;27.00;88.70;;;;;;5013639;28;20435;-58
2022/07/28 09:22:17;;;;;;;0.40;0.40;;;27.40;89.50;;;;;;5019777;28;20443;-58
2022/07/28 09:24:45;;;;;;;0.30;0.30;;;27.70;88.40;;;;;;5020686;28;20437;-57
2022/07/28 09:27:13;;;;;;;0.30;0.30;;;27.90;88.70;;;;;;5014295;28;21221;-57
2022/07/28 09:29:47;;;;;;;0.32;0.32;;;27.90;87.60;;;;;;5027936;28;20528;-57
2022/07/28 09:32:17;;;;;;;0.90;0.50;;;28.20;87.80;;;;;;5017247;28;20442;-57
2022/07/28 09:34:46;;;;;;;0.30;0.30;;;27.90;86.90;;;;;;5019393;28;20527;-58
2022/07/28 09:37:21;;;;;;;0.30;0.30;;;26.90;88.50;;;;;;5025689;28;20495;-57
2022/07/28 09:39:58;;;;;;;0.30;0.30;;;27.20;88.90;;;;;;5033266;28;20425;-58
2022/07/28 09:42:26;;;;;;;0.40;0.40;;;26.70;89.60;;;;;;5019725;28;20528;-58
2022/07/28 09:45:05;;;;;;;0.30;0.30;;;27.10;89.60;;;;;;5024720;28;20956;-58
2022/07/28 09:48:12;;;;;;;0.30;0.30;;;27.50;89.30;;;;;;5013720;28;21347;-58
2022/07/28 09:50:40;;;;;;;0.32;0.32;;;27.60;88.60;;;;;;5021018;28;20434;-58
2022/07/28 09:53:24;;;;;;;0.30;0.30;;;27.70;88.90;;;;;;5030103;28;20511;-57
2022/07/28 09:55:57;;;;;;;0.40;0.40;;;28.20;88.80;;;;;;5017840;28;20520;-58
2022/07/28 09:58:24;;;;;;;0.40;0.40;;;28.40;87.70;;;;;;5023081;28;20867;-58
2022/07/28 10:01:14;;;;;;;0.35;0.35;;;28.50;87.10;;;;;;5039220;28;20459;-58
2022/07/28 10:03:47;;;;;;;0.20;0.20;;;29.40;86.40;;;;;;5017311;28;20445;-58
2022/07/28 10:06:15;;;;;;;0.50;0.40;;;30.00;85.60;;;;;;5018224;28;20449;-58
2022/07/28 10:08:49;;;;;;;0.40;0.40;;;29.10;86.30;;;;;;5019812;28;20442;-57
2022/07/28 10:11:20;;;;;;;0.40;0.40;;;28.30;86.30;;;;;;5023044;28;20466;-59
2022/07/28 10:14:04;;;;;;;0.40;0.40;;;28.00;88.30;;;;;;5024054;28;20911;-59
2022/07/28 10:16:33;;;;;;;0.32;0.32;;;29.30;87.20;;;;;;5025216;28;21033;-58
2022/07/28 10:19:03;;;;;;;0.30;0.30;;;29.60;85.80;;;;;;5029177;28;20829;-58
2022/07/28 10:21:34;;;;;;;0.30;0.30;;;29.90;85.00;;;;;;5030700;28;20434;-58
2022/07/28 10:24:04;;;;;;;0.43;0.43;;;29.50;85.20;;;;;;5022051;28;20438;-58
2022/07/28 10:26:38;;;;;;;0.57;0.40;;;29.20;85.30;;;;;;5011011;28;20447;-58
2022/07/28 10:29:07;;;;;;;0.40;0.40;;;28.70;85.90;;;;;;5021824;28;20442;-58
2022/07/28 10:31:56;;;;;;;0.40;0.40;;;28.30;86.90;;;;;;5026958;28;20428;-58
2022/07/28 10:34:36;;;;;;;0.32;0.32;;;28.40;87.50;;;;;;5015591;28;20458;-59
2022/07/28 10:37:11;;;;;;;0.57;0.50;;;28.50;87.00;;;;;;5015122;28;20435;-57
2022/07/28 10:39:47;;;;;;;0.57;0.57;;;28.60;86.30;;;;;;5017844;28;20936;-58
2022/07/28 10:42:17;;;;;;;0.30;0.30;;;28.90;86.00;;;;;;5026735;28;20489;-58
2022/07/28 10:44:45;;;;;;;0.30;0.30;;;29.10;85.90;;;;;;5016104;28;20484;-58
2022/07/28 10:47:12;;;;;;;0.40;0.40;;;29.50;85.80;;;;;;5020038;28;20446;-58
2022/07/28 10:49:49;;;;;;;0.35;0.35;;;29.60;85.80;;;;;;5015256;28;20429;-58
2022/07/28 10:52:17;;;;;;;0.40;0.35;;;30.20;84.70;;;;;;5015674;28;20439;-58
2022/07/28 10:55:19;;;;;;;0.50;0.50;;;30.60;83.30;;;;;;5022125;28;20425;-58
2022/07/28 10:58:29;;;;;;;0.40;0.40;;;30.80;84.30;;;;;;5026660;28;20436;-59
2022/07/28 11:00:59;;;;;;;0.40;0.40;;;31.20;83.50;;;;;;5005506;28;20461;-58
2022/07/28 11:03:34;;;;;;;0.40;0.40;;;31.60;82.70;;;;;;5021436;28;20443;-58
2022/07/28 11:06:30;;;;;;;0.40;0.40;;;31.70;81.70;;;;;;5014074;28;20502;-58
2022/07/28 11:09:14;;;;;;;0.40;0.40;;;31.00;82.00;;;;;;5010934;28;20437;-58
2022/07/28 11:11:50;;;;;;;0.33;0.30;;;30.70;82.60;;;;;;5013991;28;20441;-58
2022/07/28 11:14:24;;;;;;;0.30;0.30;;;30.70;82.70;;;;;;5038716;28;20432;-58
2022/07/28 11:17:05;;;;;;;0.40;0.40;;;30.50;82.70;;;;;;5024985;28;20462;-58
2022/07/28 11:19:42;;;;;;;0.47;0.47;;;29.80;83.80;;;;;;5022551;28;20443;-58
2022/07/28 11:22:31;;;;;;;0.32;0.32;;;29.60;83.90;;;;;;5022816;28;20429;-58
2022/07/28 11:24:59;;;;;;;0.38;0.38;;;28.40;84.90;;;;;;5026711;28;20448;-58
2022/07/28 11:27:53;;;;;;;0.50;0.50;;;28.20;86.40;;;;;;5021443;28;20439;-58
2022/07/28 11:30:35;;;;;;;0.30;0.30;;;28.40;85.80;;;;;;5018774;28;20427;-58
2022/07/28 11:33:08;;;;;;;0.40;0.40;;;28.70;86.40;;;;;;5021577;28;20426;-58
2022/07/28 11:35:37;;;;;;;0.95;0.50;;;29.00;86.40;;;;;;5013007;28;20431;-58
2022/07/28 11:38:12;;;;;;;0.40;0.40;;;29.10;85.90;;;;;;5019589;28;20522;-58
2022/07/28 11:40:46;;;;;;;0.40;0.40;;;28.50;85.50;;;;;;5020059;28;20478;-58
2022/07/28 11:43:25;;;;;;;0.40;0.40;;;28.00;85.70;;;;;;5013899;28;20443;-58
2022/07/28 11:46:03;;;;;;;0.40;0.40;;;28.20;86.00;;;;;;5019764;28;20473;-58
2022/07/28 11:48:37;;;;;;;0.40;0.40;;;28.80;87.10;;;;;;5024344;28;20852;-58
2022/07/28 11:51:03;;;;;;;0.40;0.32;;;28.70;86.10;;;;;;5021996;28;20434;-58
2022/07/28 11:53:44;;;;;;;0.40;0.40;;;28.50;86.30;;;;;;5022661;28;21327;-58
2022/07/28 11:56:28;;;;;;;0.50;0.50;;;28.60;86.90;;;;;;5019270;28;20472;-58
2022/07/28 11:59:03;;;;;;;0.30;0.30;;;29.20;85.90;;;;;;5020893;28;20481;-58
2022/07/28 12:01:32;;;;;;;0.43;0.43;;;29.80;84.60;;;;;;5033252;28;20503;-58
2022/07/28 12:04:10;;;;;;;0.50;0.50;;;30.30;84.00;;;;;;5022901;28;20917;-58
2022/07/28 12:06:41;;;;;;;0.30;0.30;;;30.80;84.50;;;;;;5025637;28;20448;-58
2022/07/28 12:09:09;;;;;;;0.45;0.45;;;29.90;84.30;;;;;;5042628;28;20431;-58
2022/07/28 12:11:39;;;;;;;0.40;0.40;;;29.40;85.00;;;;;;5041749;28;20500;-58
2022/07/28 12:14:16;;;;;;;0.35;0.35;;;28.80;85.50;;;;;;5029457;28;20432;-59
2022/07/28 12:16:48;;;;;;;0.30;0.30;;;29.00;85.40;;;;;;5021061;28;20435;-59
2022/07/28 12:19:19;;;;;;;0.40;0.40;;;29.10;86.60;;;;;;5023699;28;20442;-59
2022/07/28 12:21:54;;;;;;;0.43;0.43;;;29.00;86.20;;;;;;5022279;28;20851;-58
2022/07/28 12:24:29;;;;;;;0.40;0.40;;;29.00;85.50;;;;;;5030743;28;20467;-58
2022/07/28 12:26:59;;;;;;;0.38;0.38;;;29.20;85.80;;;;;;5024204;28;20472;-58
2022/07/28 12:29:30;;;;;;;0.40;0.40;;;29.00;85.30;;;;;;5024846;28;20441;-58
2022/07/28 12:32:03;;;;;;;0.33;0.33;;;29.30;85.20;;;;;;5022067;28;20442;-58
2022/07/28 12:34:38;;;;;;;0.40;0.40;;;29.40;85.90;;;;;;5025336;28;20557;-58
2022/07/28 12:37:08;;;;;;;0.40;0.40;;;29.70;84.40;;;;;;5019369;28;20449;-58
2022/07/28 12:39:38;;;;;;;0.30;0.30;;;29.90;84.20;;;;;;5015801;28;20460;-58
2022/07/28 12:42:07;;;;;;;0.40;0.40;;;29.80;84.60;;;;;;5033577;28;20434;-58
2022/07/28 12:44:38;;;;;;;0.38;0.38;;;29.90;84.20;;;;;;5026731;28;20434;-58
2022/07/28 12:47:07;;;;;;;0.50;0.50;;;30.50;83.90;;;;;;5019814;28;20431;-57
2022/07/28 12:49:38;;;;;;;0.40;0.30;;;30.90;82.70;;;;;;5026300;28;20825;-58
2022/07/28 12:52:19;;;;;;;0.30;0.30;;;30.40;83.40;;;;;;5023026;28;20433;-58
2022/07/28 12:54:49;;;;;;;0.32;0.32;;;30.40;82.80;;;;;;5020253;28;20984;-58
2022/07/28 12:57:39;;;;;;;0.43;0.37;;;30.50;83.40;;;;;;5022396;28;20438;-59
2022/07/28 13:00:17;;;;;;;0.30;0.30;;;30.70;82.70;;;;;;5019882;28;20445;-60
2022/07/28 13:02:44;;;;;;;0.47;0.47;;;31.00;82.70;;;;;;5019170;28;20428;-60
2022/07/28 13:05:29;;;;;;;0.40;0.30;;;31.30;81.50;;;;;;5024636;28;20465;-60
2022/07/28 13:08:04;;;;;;;0.32;0.32;;;31.40;82.30;;;;;;5019869;28;20493;-61
2022/07/28 13:10:31;;;;;;;0.40;0.40;;;31.50;81.50;;;;;;5018549;28;22156;-61